Time;durP1;ratioP1;P1;durP2;ratioP2;P2;SDS_P1;SDS_P2;PMS_P1;PMS_P2;Temp;Humidity;BMP_temperature;BMP_pressure;BME280_temperature;BME280_humidity;BME280_pressure;Samples;Min_cycle;Max_cycle;Signal;HPM_P1;HPM_P2
2020/12/16 00:01:18;;;;;;;28.77;19.53;;;;;;;;;;5071984;28;20411;-49
2020/12/16 00:03:44;;;;;;;36.10;20.13;;;;;;;;;;5072400;28;20913;-52
2020/12/16 00:06:10;;;;;;;32.13;20.03;;;;;;;;;;5071865;28;20404;-51
2020/12/16 00:08:36;;;;;;;30.47;19.87;;;;;;;;;;5071683;28;20422;-52
2020/12/16 00:11:02;;;;;;;30.60;18.10;;;;;;;;;;5071567;28;20874;-51
2020/12/16 00:13:28;;;;;;;35.17;20.87;;;;;;;;;;5069170;28;20455;-51
2020/12/16 00:15:54;;;;;;;35.60;21.27;;;;;;;;;;5069919;28;20449;-50
2020/12/16 00:18:21;;;;;;;33.87;20.13;;;;;;;;;;5070144;28;20789;-51
2020/12/16 00:20:47;;;;;;;31.17;19.10;;;;;;;;;;5071495;28;20407;-50
2020/12/16 00:23:13;;;;;;;38.67;21.80;;;;;;;;;;5070239;28;20434;-50
2020/12/16 00:25:39;;;;;;;38.90;22.90;;;;;;;;;;5071433;28;20890;-52
2020/12/16 00:28:05;;;;;;;40.10;23.13;;;;;;;;;;5058730;28;20465;-51
2020/12/16 00:30:31;;;;;;;41.37;24.13;;;;;;;;;;5074225;28;20461;-52
2020/12/16 00:32:57;;;;;;;35.30;22.23;;;;;;;;;;5091419;28;20431;-53
2020/12/16 00:35:23;;;;;;;39.50;21.50;;;;;;;;;;5091721;28;20476;-52
2020/12/16 00:37:49;;;;;;;32.57;21.20;;;;;;;;;;5091436;28;20910;-52
2020/12/16 00:40:17;;;;;;;37.80;20.87;;;;;;;;;;5091431;28;20452;-52
2020/12/16 00:42:46;;;;;;;33.07;20.77;;;;;;;;;;5091258;28;20405;-52
2020/12/16 00:45:12;;;;;;;33.20;21.10;;;;;;;;;;5091489;28;20433;-52
2020/12/16 00:47:38;;;;;;;38.07;21.47;;;;;;;;;;5091257;28;20895;-50
2020/12/16 00:50:06;;;;;;;39.93;23.67;;;;;;;;;;5091258;28;20483;-51
2020/12/16 00:52:32;;;;;;;45.97;23.27;;;;;;;;;;5091086;28;20398;-51
2020/12/16 00:54:58;;;;;;;38.60;22.37;;;;;;;;;;5091051;28;20933;-51
2020/12/16 00:57:24;;;;;;;46.93;24.70;;;;;;;;;;5065039;28;20553;-52
2020/12/16 00:59:50;;;;;;;41.33;23.20;;;;;;;;;;5050952;28;20497;-52
2020/12/16 01:02:16;;;;;;;45.40;24.63;;;;;;;;;;5050737;28;20410;-53
2020/12/16 01:04:42;;;;;;;42.57;25.13;;;;;;;;;;5050902;28;20566;-52
2020/12/16 01:07:08;;;;;;;40.90;24.43;;;;;;;;;;5050848;28;20511;-52
2020/12/16 01:09:34;;;;;;;45.03;23.47;;;;;;;;;;5050712;28;20489;-52
2020/12/16 01:12:00;;;;;;;40.23;23.00;;;;;;;;;;5050635;28;20819;-52
2020/12/16 01:14:26;;;;;;;38.87;23.93;;;;;;;;;;5050888;28;20473;-52
2020/12/16 01:16:52;;;;;;;39.97;23.33;;;;;;;;;;5050802;28;20420;-52
2020/12/16 01:19:18;;;;;;;38.97;24.77;;;;;;;;;;5050713;28;20408;-52
2020/12/16 01:21:44;;;;;;;36.10;21.67;;;;;;;;;;5050521;28;20411;-52
2020/12/16 01:24:10;;;;;;;37.50;23.50;;;;;;;;;;5050659;28;20466;-52
2020/12/16 01:26:46;;;;;;;34.77;21.80;;;;;;;;;;5050789;28;20498;-52
2020/12/16 01:29:12;;;;;;;35.03;20.87;;;;;;;;;;5069728;28;20458;-52
2020/12/16 01:31:39;;;;;;;34.37;19.77;;;;;;;;;;5070241;28;20432;-52
2020/12/16 01:34:05;;;;;;;36.63;22.50;;;;;;;;;;5070644;28;20435;-52
2020/12/16 01:36:30;;;;;;;34.53;20.73;;;;;;;;;;5070414;28;20432;-52
2020/12/16 01:38:56;;;;;;;33.80;20.83;;;;;;;;;;5070530;28;20398;-52
2020/12/16 01:41:23;;;;;;;38.73;21.90;;;;;;;;;;5070261;28;20407;-51
2020/12/16 01:43:49;;;;;;;35.53;21.83;;;;;;;;;;5070555;28;20495;-52
2020/12/16 01:46:15;;;;;;;34.70;21.13;;;;;;;;;;5070391;28;20813;-52
2020/12/16 01:48:41;;;;;;;38.70;21.40;;;;;;;;;;5070454;28;20400;-52
2020/12/16 01:51:09;;;;;;;39.87;23.13;;;;;;;;;;5070326;28;20797;-52
2020/12/16 01:53:35;;;;;;;37.77;21.83;;;;;;;;;;5070240;28;20403;-52
2020/12/16 01:56:01;;;;;;;35.00;20.60;;;;;;;;;;5070390;28;20400;-52
2020/12/16 01:58:30;;;;;;;34.23;22.37;;;;;;;;;;5068927;28;20509;-52
2020/12/16 02:00:59;;;;;;;35.50;21.13;;;;;;;;;;5070366;28;20427;-53
2020/12/16 02:03:26;;;;;;;38.93;21.30;;;;;;;;;;5070175;28;20770;-52
2020/12/16 02:05:54;;;;;;;32.80;19.97;;;;;;;;;;5070345;28;20407;-51
2020/12/16 02:08:20;;;;;;;36.13;21.80;;;;;;;;;;5070184;28;20457;-53
2020/12/16 02:10:47;;;;;;;41.40;20.63;;;;;;;;;;5070286;28;20454;-53
2020/12/16 02:13:13;;;;;;;30.07;20.30;;;;;;;;;;5071810;28;20427;-51
2020/12/16 02:15:39;;;;;;;28.93;18.33;;;;;;;;;;5074263;28;20395;-52
2020/12/16 02:18:05;;;;;;;29.77;20.00;;;;;;;;;;5074147;28;20914;-52
2020/12/16 02:20:31;;;;;;;31.23;20.00;;;;;;;;;;5074245;28;20770;-52
2020/12/16 02:22:58;;;;;;;41.27;22.30;;;;;;;;;;5073950;28;20418;-52
2020/12/16 02:25:24;;;;;;;28.00;19.40;;;;;;;;;;5074340;28;20444;-52
2020/12/16 02:27:50;;;;;;;34.50;22.27;;;;;;;;;;5059246;28;20842;-52
2020/12/16 02:30:16;;;;;;;33.57;21.47;;;;;;;;;;5054022;28;20510;-52
2020/12/16 02:32:42;;;;;;;31.97;20.40;;;;;;;;;;5053665;28;20490;-52
2020/12/16 02:35:09;;;;;;;32.90;20.93;;;;;;;;;;5053850;28;20483;-52
2020/12/16 02:37:35;;;;;;;38.70;21.47;;;;;;;;;;5053657;28;20427;-52
2020/12/16 02:40:01;;;;;;;37.10;21.50;;;;;;;;;;5053617;28;20418;-52
2020/12/16 02:42:28;;;;;;;32.20;21.40;;;;;;;;;;5053375;28;20411;-52
2020/12/16 02:44:55;;;;;;;35.87;21.33;;;;;;;;;;5053521;28;20415;-52
2020/12/16 02:47:21;;;;;;;41.70;21.97;;;;;;;;;;5053413;28;20510;-52
2020/12/16 02:49:47;;;;;;;31.50;21.27;;;;;;;;;;5053308;28;20501;-52
2020/12/16 02:52:13;;;;;;;37.17;22.90;;;;;;;;;;5053130;28;20407;-52
2020/12/16 02:54:39;;;;;;;41.40;23.10;;;;;;;;;;5053248;28;20400;-52
2020/12/16 02:57:05;;;;;;;34.10;21.93;;;;;;;;;;5053141;28;20490;-51
2020/12/16 02:59:31;;;;;;;38.07;23.00;;;;;;;;;;5053193;28;20443;-52
2020/12/16 03:01:58;;;;;;;46.80;24.20;;;;;;;;;;5052969;28;20999;-52
2020/12/16 03:04:24;;;;;;;42.57;22.33;;;;;;;;;;5053159;28;20437;-52
2020/12/16 03:06:51;;;;;;;40.87;22.97;;;;;;;;;;5052841;28;20427;-51
2020/12/16 03:09:17;;;;;;;52.50;26.50;;;;;;;;;;5052997;28;20949;-52
2020/12/16 03:11:43;;;;;;;48.30;26.17;;;;;;;;;;5052752;28;20410;-52
2020/12/16 03:14:09;;;;;;;44.90;25.60;;;;;;;;;;5052997;28;20428;-53
2020/12/16 03:16:35;;;;;;;55.60;26.50;;;;;;;;;;5052737;28;20424;-52
2020/12/16 03:19:01;;;;;;;45.77;24.00;;;;;;;;;;5052861;28;20418;-52
2020/12/16 03:21:27;;;;;;;54.53;25.40;;;;;;;;;;5052486;28;20462;-52
2020/12/16 03:23:54;;;;;;;45.58;24.60;;;;;;;;;;5052648;28;20411;-52
2020/12/16 03:26:20;;;;;;;55.70;26.70;;;;;;;;;;5052359;28;20583;-52
2020/12/16 03:28:46;;;;;;;50.23;25.33;;;;;;;;;;5053072;28;20419;-53
2020/12/16 03:31:13;;;;;;;42.93;23.77;;;;;;;;;;5052396;28;20428;-52
2020/12/16 03:33:40;;;;;;;39.20;22.73;;;;;;;;;;5052699;28;20410;-53
2020/12/16 03:36:06;;;;;;;41.73;22.27;;;;;;;;;;5052646;28;20414;-52
2020/12/16 03:38:32;;;;;;;47.30;24.70;;;;;;;;;;5052421;28;20923;-53
2020/12/16 03:40:58;;;;;;;39.30;23.37;;;;;;;;;;5052428;28;20771;-51
2020/12/16 03:43:24;;;;;;;41.77;23.00;;;;;;;;;;5052126;28;20451;-51
2020/12/16 03:45:52;;;;;;;41.70;21.48;;;;;;;;;;5052297;28;20407;-53
2020/12/16 03:48:18;;;;;;;50.40;24.17;;;;;;;;;;5052174;28;20414;-52
2020/12/16 03:50:44;;;;;;;41.70;23.97;;;;;;;;;;5052201;28;20684;-52
2020/12/16 03:53:10;;;;;;;40.77;22.03;;;;;;;;;;5052068;28;20762;-52
2020/12/16 03:55:36;;;;;;;41.57;22.27;;;;;;;;;;5052278;28;20399;-52
2020/12/16 03:58:02;;;;;;;40.80;23.20;;;;;;;;;;5067880;28;20469;-52
2020/12/16 04:00:28;;;;;;;39.20;21.63;;;;;;;;;;5072128;28;20398;-52
2020/12/16 04:02:54;;;;;;;44.20;23.17;;;;;;;;;;5071863;28;20956;-52
2020/12/16 04:05:20;;;;;;;40.90;21.30;;;;;;;;;;5072071;28;20393;-52
2020/12/16 04:07:46;;;;;;;36.25;20.92;;;;;;;;;;5071966;28;20475;-52
2020/12/16 04:10:12;;;;;;;44.87;22.87;;;;;;;;;;5071905;28;20207;-52
2020/12/16 04:12:38;;;;;;;56.07;22.07;;;;;;;;;;5071646;28;20440;-51
2020/12/16 04:15:05;;;;;;;226.43;26.20;;;;;;;;;;5071833;28;20397;-52
2020/12/16 04:17:34;;;;;;;452.85;41.20;;;;;;;;;;5071956;28;20780;-52
2020/12/16 04:20:01;;;;;;;384.05;33.40;;;;;;;;;;5071891;28;20174;-52
2020/12/16 04:22:29;;;;;;;231.50;26.95;;;;;;;;;;5071580;28;20248;-52
2020/12/16 04:24:55;;;;;;;483.50;33.50;;;;;;;;;;5071658;28;20177;-52
2020/12/16 04:27:21;;;;;;;256.17;29.17;;;;;;;;;;5062307;28;20229;-51
2020/12/16 04:29:47;;;;;;;390.00;35.80;;;;;;;;;;5051482;28;20202;-51
2020/12/16 04:32:14;;;;;;;53.43;18.87;;;;;;;;;;5051277;28;20433;-52
2020/12/16 04:34:40;;;;;;;162.57;24.15;;;;;;;;;;5051291;28;20904;-52
2020/12/16 04:37:06;;;;;;;92.32;22.30;;;;;;;;;;5050883;28;20183;-52
2020/12/16 04:39:32;;;;;;;40.60;20.33;;;;;;;;;;5051347;28;20167;-52
2020/12/16 04:41:58;;;;;;;57.33;18.65;;;;;;;;;;5051061;28;20249;-52
2020/12/16 04:44:24;;;;;;;39.58;20.17;;;;;;;;;;5051344;28;20653;-52
2020/12/16 04:46:50;;;;;;;30.10;18.75;;;;;;;;;;5051145;28;20209;-52
2020/12/16 04:49:16;;;;;;;37.13;20.55;;;;;;;;;;5051100;28;20377;-52
2020/12/16 04:51:44;;;;;;;41.90;20.67;;;;;;;;;;5050845;28;20172;-51
2020/12/16 04:54:10;;;;;;;36.08;19.10;;;;;;;;;;5051197;28;20194;-52
2020/12/16 04:56:37;;;;;;;45.60;22.75;;;;;;;;;;5056976;28;20209;-52
2020/12/16 04:59:06;;;;;;;44.92;21.85;;;;;;;;;;5071058;28;20220;-52
2020/12/16 05:01:37;;;;;;;41.95;20.92;;;;;;;;;;5070648;28;20257;-52
2020/12/16 05:04:03;;;;;;;42.90;22.25;;;;;;;;;;5070976;28;20609;-52
2020/12/16 05:06:32;;;;;;;42.60;22.63;;;;;;;;;;5070870;28;20198;-51
2020/12/16 05:09:02;;;;;;;50.65;23.20;;;;;;;;;;5070763;28;20402;-51
2020/12/16 05:11:33;;;;;;;47.83;23.77;;;;;;;;;;5070549;28;20169;-52
2020/12/16 05:14:28;;;;;;;102.18;24.00;;;;;;;;;;5070886;28;20392;-52
2020/12/16 05:16:54;;;;;;;90.85;22.98;;;;;;;;;;5053529;28;20203;-52
2020/12/16 05:19:39;;;;;;;49.53;21.97;;;;;;;;;;5070691;28;20167;-51
2020/12/16 05:22:20;;;;;;;82.00;20.95;;;;;;;;;;5070405;28;20483;-53
2020/12/16 05:24:47;;;;;;;293.83;30.80;;;;;;;;;;5070728;28;20661;-51
2020/12/16 05:27:17;;;;;;;300.73;32.45;;;;;;;;;;5060547;28;20199;-51
2020/12/16 05:29:43;;;;;;;392.17;31.25;;;;;;;;;;5050560;28;20280;-52
2020/12/16 05:32:19;;;;;;;360.70;33.13;;;;;;;;;;5050223;28;20194;-52
2020/12/16 05:34:45;;;;;;;146.55;26.08;;;;;;;;;;5050645;28;20482;-52
2020/12/16 05:37:21;;;;;;;147.13;27.20;;;;;;;;;;5050546;28;20194;-52
2020/12/16 05:39:55;;;;;;;39.72;19.35;;;;;;;;;;5050646;28;20592;-52
2020/12/16 05:42:21;;;;;;;47.70;20.98;;;;;;;;;;5050333;28;20174;-52
2020/12/16 05:44:47;;;;;;;41.13;21.50;;;;;;;;;;5050634;28;20185;-52
2020/12/16 05:47:13;;;;;;;46.13;20.63;;;;;;;;;;5050374;28;20933;-52
2020/12/16 05:49:39;;;;;;;43.37;21.97;;;;;;;;;;5054496;28;20201;-52
2020/12/16 05:52:06;;;;;;;47.70;21.50;;;;;;;;;;5054318;28;20397;-51
2020/12/16 05:54:34;;;;;;;45.97;21.65;;;;;;;;;;5056609;28;20777;-52
2020/12/16 05:57:10;;;;;;;44.28;21.20;;;;;;;;;;5074238;28;20199;-52
2020/12/16 05:59:36;;;;;;;45.13;22.02;;;;;;;;;;5074493;28;20179;-52
2020/12/16 06:02:04;;;;;;;44.88;21.88;;;;;;;;;;5074203;28;20182;-52
2020/12/16 06:04:33;;;;;;;40.25;21.50;;;;;;;;;;5074212;28;20643;-52
2020/12/16 06:06:59;;;;;;;59.25;21.90;;;;;;;;;;5074255;28;20209;-52
2020/12/16 06:09:25;;;;;;;58.40;18.33;;;;;;;;;;5074111;28;20190;-51
2020/12/16 06:11:55;;;;;;;86.00;18.73;;;;;;;;;;5074177;28;20537;-52
2020/12/16 06:14:22;;;;;;;31.45;18.33;;;;;;;;;;5074392;28;20397;-52
2020/12/16 06:16:48;;;;;;;134.73;22.90;;;;;;;;;;5074314;28;20186;-52
2020/12/16 06:19:25;;;;;;;62.03;17.70;;;;;;;;;;5074456;28;20782;-51
2020/12/16 06:21:56;;;;;;;91.40;19.23;;;;;;;;;;5074071;28;20204;-52
2020/12/16 06:24:28;;;;;;;43.78;15.98;;;;;;;;;;5063454;28;20702;-52
2020/12/16 06:26:56;;;;;;;155.23;19.80;;;;;;;;;;5053991;28;20191;-51
2020/12/16 06:29:22;;;;;;;67.72;18.77;;;;;;;;;;5053765;28;20690;-52
2020/12/16 06:31:49;;;;;;;199.68;22.67;;;;;;;;;;5053432;28;20163;-52
2020/12/16 06:34:15;;;;;;;115.78;21.70;;;;;;;;;;5053814;28;20217;-52
2020/12/16 06:36:42;;;;;;;182.48;22.88;;;;;;;;;;5053632;28;20701;-53
2020/12/16 06:39:14;;;;;;;121.65;20.55;;;;;;;;;;5053737;28;20170;-52
2020/12/16 06:41:50;;;;;;;146.98;20.73;;;;;;;;;;5056863;28;20292;-52
2020/12/16 06:44:16;;;;;;;75.50;20.02;;;;;;;;;;5064399;28;20178;-52
2020/12/16 06:46:43;;;;;;;51.77;18.87;;;;;;;;;;5073252;28;20742;-52
2020/12/16 06:49:15;;;;;;;52.88;18.35;;;;;;;;;;5072753;28;21358;-51
2020/12/16 06:51:42;;;;;;;32.22;17.38;;;;;;;;;;5071148;28;20258;-51
2020/12/16 06:54:11;;;;;;;40.70;17.80;;;;;;;;;;5060363;28;20178;-52
2020/12/16 06:56:38;;;;;;;36.72;19.60;;;;;;;;;;5052432;28;20199;-49
2020/12/16 06:59:04;;;;;;;39.88;19.13;;;;;;;;;;5051965;28;20202;-51
2020/12/16 07:01:30;;;;;;;37.65;19.08;;;;;;;;;;5054793;28;20543;-49
2020/12/16 07:03:56;;;;;;;38.35;18.60;;;;;;;;;;5073193;28;20622;-50
2020/12/16 07:06:28;;;;;;;32.07;17.80;;;;;;;;;;5073085;28;20245;-49
2020/12/16 07:09:13;;;;;;;37.75;19.15;;;;;;;;;;5072889;28;20392;-52
2020/12/16 07:11:39;;;;;;;37.88;17.77;;;;;;;;;;5072782;28;20166;-49
2020/12/16 07:14:09;;;;;;;37.92;19.98;;;;;;;;;;5068125;28;20508;-52
2020/12/16 07:16:35;;;;;;;35.40;19.95;;;;;;;;;;5062252;28;20194;-52
2020/12/16 07:19:01;;;;;;;41.33;19.10;;;;;;;;;;5052758;28;20160;-52
2020/12/16 07:21:28;;;;;;;29.15;19.20;;;;;;;;;;5060886;28;20408;-52
2020/12/16 07:24:03;;;;;;;37.30;19.20;;;;;;;;;;5060566;28;20262;-49
2020/12/16 07:26:30;;;;;;;35.83;18.45;;;;;;;;;;5087426;28;20667;-50
2020/12/16 07:28:58;;;;;;;36.58;19.60;;;;;;;;;;5088631;28;20166;-49
2020/12/16 07:31:24;;;;;;;31.02;18.38;;;;;;;;;;5072521;28;20193;-51
2020/12/16 07:33:50;;;;;;;29.30;16.67;;;;;;;;;;5072709;28;20173;-49
2020/12/16 07:36:17;;;;;;;30.98;17.27;;;;;;;;;;5072552;28;20169;-49
2020/12/16 07:38:50;;;;;;;28.98;16.98;;;;;;;;;;5072462;28;20244;-52
2020/12/16 07:41:23;;;;;;;29.42;16.85;;;;;;;;;;5077623;28;20247;-53
2020/12/16 07:43:49;;;;;;;26.95;16.55;;;;;;;;;;5092531;28;20169;-49
2020/12/16 07:46:15;;;;;;;30.95;16.38;;;;;;;;;;5092566;28;20208;-49
2020/12/16 07:48:45;;;;;;;31.80;18.23;;;;;;;;;;5092592;28;20621;-49
2020/12/16 07:51:11;;;;;;;30.00;16.50;;;;;;;;;;5092475;28;20201;-49
2020/12/16 07:53:43;;;;;;;26.43;16.20;;;;;;;;;;5092216;28;20174;-49
2020/12/16 07:56:09;;;;;;;29.35;17.05;;;;;;;;;;5071670;28;20413;-49
2020/12/16 07:58:35;;;;;;;34.87;18.17;;;;;;;;;;5071999;28;20239;-49
2020/12/16 08:01:12;;;;;;;29.17;16.23;;;;;;;;;;5071909;28;20405;-49
2020/12/16 08:03:38;;;;;;;30.30;17.80;;;;;;;;;;5071743;28;20174;-49
2020/12/16 08:06:04;;;;;;;30.58;17.48;;;;;;;;;;5067110;28;20441;-52
2020/12/16 08:08:30;;;;;;;32.03;18.17;;;;;;;;;;5053146;28;20210;-54
2020/12/16 08:10:56;;;;;;;28.40;16.17;;;;;;;;;;5060328;28;20924;-49
2020/12/16 08:13:23;;;;;;;26.40;16.75;;;;;;;;;;5070535;28;20802;-54
2020/12/16 08:15:50;;;;;;;28.58;17.13;;;;;;;;;;5071980;28;20163;-49
2020/12/16 08:18:16;;;;;;;28.00;15.43;;;;;;;;;;5069688;28;20711;-49
2020/12/16 08:20:43;;;;;;;26.17;15.52;;;;;;;;;;5061625;28;20190;-49
2020/12/16 08:23:12;;;;;;;29.10;15.50;;;;;;;;;;5071223;28;20178;-52
2020/12/16 08:25:38;;;;;;;25.07;15.70;;;;;;;;;;5067281;28;20912;-49
2020/12/16 08:28:05;;;;;;;25.03;16.20;;;;;;;;;;5068720;28;20516;-51
2020/12/16 08:30:32;;;;;;;26.38;15.52;;;;;;;;;;5059607;28;21031;-51
2020/12/16 08:33:15;;;;;;;31.35;17.33;;;;;;;;;;5056897;28;20181;-52
2020/12/16 08:35:59;;;;;;;38.33;17.65;;;;;;;;;;5059809;28;20172;-51
2020/12/16 08:38:28;;;;;;;33.28;16.48;;;;;;;;;;5069435;28;20229;-52
2020/12/16 08:40:56;;;;;;;28.23;15.33;;;;;;;;;;5063741;28;20176;-53
2020/12/16 08:43:30;;;;;;;29.27;17.17;;;;;;;;;;5070354;28;20401;-53
2020/12/16 08:46:00;;;;;;;26.70;16.70;;;;;;;;;;5051290;28;20398;-52
2020/12/16 08:48:26;;;;;;;24.97;17.17;;;;;;;;;;5051319;28;20460;-52
2020/12/16 08:51:03;;;;;;;31.97;17.20;;;;;;;;;;5051083;28;20545;-52
2020/12/16 08:53:29;;;;;;;31.47;16.87;;;;;;;;;;5064644;28;20415;-52
2020/12/16 08:55:55;;;;;;;23.73;15.57;;;;;;;;;;5053629;28;20415;-52
2020/12/16 08:58:21;;;;;;;23.17;15.40;;;;;;;;;;5064687;28;20962;-52
2020/12/16 09:00:47;;;;;;;29.10;15.00;;;;;;;;;;5069003;28;20412;-53
2020/12/16 09:03:13;;;;;;;18.43;12.30;;;;;;;;;;5070764;28;20411;-53
2020/12/16 09:05:40;;;;;;;22.20;12.60;;;;;;;;;;5061531;28;20422;-53
2020/12/16 09:08:12;;;;;;;17.27;12.20;;;;;;;;;;5050806;28;20786;-53
2020/12/16 09:10:39;;;;;;;17.50;12.03;;;;;;;;;;5058933;28;20517;-53
2020/12/16 09:13:09;;;;;;;14.53;10.10;;;;;;;;;;5051668;28;20400;-52
2020/12/16 09:15:35;;;;;;;15.33;9.90;;;;;;;;;;5065780;28;20417;-52
2020/12/16 09:18:01;;;;;;;12.60;9.67;;;;;;;;;;5070303;28;20478;-53
2020/12/16 09:20:30;;;;;;;14.53;8.93;;;;;;;;;;5050635;28;20421;-53
2020/12/16 09:22:56;;;;;;;10.87;9.37;;;;;;;;;;5053446;28;20457;-54
2020/12/16 09:25:22;;;;;;;16.13;8.83;;;;;;;;;;5063198;28;20402;-53
2020/12/16 09:28:01;;;;;;;14.63;9.80;;;;;;;;;;5067339;28;20960;-53
2020/12/16 09:30:31;;;;;;;12.83;9.23;;;;;;;;;;5051571;28;20920;-54
2020/12/16 09:32:58;;;;;;;14.83;9.23;;;;;;;;;;5070501;28;20481;-53
2020/12/16 09:35:24;;;;;;;12.93;9.50;;;;;;;;;;5068875;28;20390;-54
2020/12/16 09:37:50;;;;;;;10.10;8.17;;;;;;;;;;5070104;28;20436;-52
2020/12/16 09:40:17;;;;;;;10.77;8.97;;;;;;;;;;5064475;28;20387;-52
2020/12/16 09:43:10;;;;;;;11.57;8.63;;;;;;;;;;5050319;28;20405;-52
2020/12/16 09:45:37;;;;;;;12.27;9.40;;;;;;;;;;5058252;28;20421;-52
2020/12/16 09:48:03;;;;;;;11.60;9.57;;;;;;;;;;5050364;28;20400;-52
2020/12/16 09:50:32;;;;;;;9.27;8.33;;;;;;;;;;5068797;28;20463;-53
2020/12/16 09:52:59;;;;;;;11.00;7.70;;;;;;;;;;5070478;28;20404;-52
2020/12/16 09:55:26;;;;;;;8.40;7.37;;;;;;;;;;5065053;28;20421;-52
2020/12/16 09:57:58;;;;;;;17.73;8.80;;;;;;;;;;5057460;28;20457;-52
2020/12/16 10:00:24;;;;;;;9.17;8.07;;;;;;;;;;5051420;28;20830;-52
2020/12/16 10:02:57;;;;;;;8.13;7.33;;;;;;;;;;5050125;28;20413;-52
2020/12/16 10:05:23;;;;;;;7.77;6.97;;;;;;;;;;5052306;28;20436;-53
2020/12/16 10:07:49;;;;;;;8.17;7.43;;;;;;;;;;5051465;28;20435;-52
2020/12/16 10:10:15;;;;;;;9.03;7.20;;;;;;;;;;5066670;28;20513;-52
2020/12/16 10:12:41;;;;;;;8.70;7.63;;;;;;;;;;5069377;28;20436;-52
2020/12/16 10:15:07;;;;;;;7.97;6.90;;;;;;;;;;5065418;28;20418;-52
2020/12/16 10:17:33;;;;;;;7.37;6.33;;;;;;;;;;5050318;28;20425;-53
2020/12/16 10:20:01;;;;;;;9.27;5.97;;;;;;;;;;5051573;28;20913;-53
2020/12/16 10:22:27;;;;;;;5.63;5.07;;;;;;;;;;5051266;28;20421;-53
2020/12/16 10:24:53;;;;;;;5.50;5.10;;;;;;;;;;5049956;28;20777;-53
2020/12/16 10:27:19;;;;;;;5.50;4.83;;;;;;;;;;5050309;28;20440;-53
2020/12/16 10:29:45;;;;;;;4.93;4.50;;;;;;;;;;5050082;28;20452;-53
2020/12/16 10:32:11;;;;;;;4.90;4.50;;;;;;;;;;5050974;28;20873;-53
2020/12/16 10:34:37;;;;;;;4.60;4.20;;;;;;;;;;5052286;28;20408;-53
2020/12/16 10:37:03;;;;;;;6.63;4.37;;;;;;;;;;5070296;28;20428;-53
2020/12/16 10:39:29;;;;;;;4.77;4.37;;;;;;;;;;5073626;28;20397;-54
2020/12/16 10:41:57;;;;;;;4.60;4.00;;;;;;;;;;5056307;28;20928;-53
2020/12/16 10:44:23;;;;;;;4.03;3.73;;;;;;;;;;5053344;28;20962;-53
2020/12/16 10:46:50;;;;;;;4.63;4.23;;;;;;;;;;5069861;28;20455;-53
2020/12/16 10:49:17;;;;;;;5.13;4.80;;;;;;;;;;5064395;28;21141;-53
2020/12/16 10:51:43;;;;;;;5.30;4.50;;;;;;;;;;5054117;28;20449;-55
2020/12/16 10:54:09;;;;;;;5.90;5.47;;;;;;;;;;5052910;28;20408;-53
2020/12/16 10:56:35;;;;;;;5.23;4.83;;;;;;;;;;5055134;28;20447;-53
2020/12/16 10:59:01;;;;;;;5.23;4.47;;;;;;;;;;5059105;28;20405;-53
2020/12/16 11:01:28;;;;;;;4.93;4.50;;;;;;;;;;5070969;28;20415;-53
2020/12/16 11:03:54;;;;;;;4.03;3.73;;;;;;;;;;5066131;28;20419;-53
2020/12/16 11:06:20;;;;;;;3.43;3.10;;;;;;;;;;5054106;28;20408;-53
2020/12/16 11:08:46;;;;;;;6.50;5.90;;;;;;;;;;5053288;28;20393;-53
2020/12/16 11:11:12;;;;;;;3.27;2.57;;;;;;;;;;5052869;28;20797;-53
2020/12/16 11:13:38;;;;;;;3.30;3.10;;;;;;;;;;5057130;28;20412;-53
2020/12/16 11:16:04;;;;;;;3.33;3.03;;;;;;;;;;5071259;28;20495;-54
2020/12/16 11:18:30;;;;;;;4.43;4.03;;;;;;;;;;5064766;28;20434;-53
2020/12/16 11:20:56;;;;;;;2.57;2.40;;;;;;;;;;5053881;28;20961;-54
2020/12/16 11:23:22;;;;;;;2.20;2.10;;;;;;;;;;5054786;28;20555;-53
2020/12/16 11:25:48;;;;;;;2.07;1.97;;;;;;;;;;5067895;28;20514;-54
2020/12/16 11:28:14;;;;;;;2.60;2.50;;;;;;;;;;5091079;28;20473;-53
2020/12/16 11:30:40;;;;;;;2.30;2.20;;;;;;;;;;5087727;28;20452;-54
2020/12/16 11:33:06;;;;;;;3.07;2.87;;;;;;;;;;5072760;28;20412;-54
2020/12/16 11:35:32;;;;;;;2.27;2.13;;;;;;;;;;5071146;28;20413;-53
2020/12/16 11:37:58;;;;;;;2.60;2.50;;;;;;;;;;5071543;28;20466;-54
2020/12/16 11:40:24;;;;;;;2.80;2.63;;;;;;;;;;5071595;28;20478;-54
2020/12/16 11:42:50;;;;;;;2.77;2.57;;;;;;;;;;5072220;28;20408;-54
2020/12/16 11:45:16;;;;;;;2.33;2.23;;;;;;;;;;5060768;28;20421;-54
2020/12/16 11:47:42;;;;;;;2.30;2.20;;;;;;;;;;5068834;28;20431;-54
2020/12/16 11:50:09;;;;;;;2.20;2.00;;;;;;;;;;5071517;28;20452;-54
2020/12/16 11:52:36;;;;;;;2.10;1.97;;;;;;;;;;5072079;28;20495;-54
2020/12/16 11:55:02;;;;;;;2.60;2.50;;;;;;;;;;5067497;28;20423;-54
2020/12/16 11:57:28;;;;;;;2.00;1.90;;;;;;;;;;5051681;28;20461;-54
2020/12/16 11:59:54;;;;;;;2.43;2.30;;;;;;;;;;5066047;28;20811;-54
2020/12/16 12:02:20;;;;;;;3.17;2.97;;;;;;;;;;5069840;28;20416;-53
2020/12/16 12:04:46;;;;;;;2.10;2.00;;;;;;;;;;5070502;28;20408;-54
2020/12/16 12:07:12;;;;;;;3.13;2.17;;;;;;;;;;5070191;28;20432;-54
2020/12/16 12:09:38;;;;;;;2.43;2.33;;;;;;;;;;5065289;28;20460;-54
2020/12/16 12:12:04;;;;;;;2.80;2.63;;;;;;;;;;5051936;28;20405;-53
2020/12/16 12:14:30;;;;;;;2.27;2.17;;;;;;;;;;5053252;28;20828;-53
2020/12/16 12:16:57;;;;;;;3.23;3.03;;;;;;;;;;5051961;28;20417;-54
2020/12/16 12:19:23;;;;;;;2.30;2.20;;;;;;;;;;5061356;28;20495;-52
2020/12/16 12:21:49;;;;;;;2.70;2.50;;;;;;;;;;5071472;28;20542;-53
2020/12/16 12:24:15;;;;;;;2.93;2.63;;;;;;;;;;5066464;28;20427;-53
2020/12/16 12:26:41;;;;;;;3.30;3.10;;;;;;;;;;5051318;28;20456;-52
2020/12/16 12:29:07;;;;;;;3.30;3.10;;;;;;;;;;5060642;28;20386;-52
2020/12/16 12:31:33;;;;;;;3.13;2.93;;;;;;;;;;5069624;28;20458;-52
2020/12/16 12:33:59;;;;;;;3.63;3.10;;;;;;;;;;5059333;28;20440;-52
2020/12/16 12:36:25;;;;;;;3.10;2.90;;;;;;;;;;5069617;28;20475;-53
2020/12/16 12:38:51;;;;;;;3.50;3.30;;;;;;;;;;5054626;28;20413;-52
2020/12/16 12:41:17;;;;;;;3.63;3.33;;;;;;;;;;5061146;28;20399;-52
2020/12/16 12:43:43;;;;;;;2.50;2.40;;;;;;;;;;5069548;28;20417;-51
2020/12/16 12:46:10;;;;;;;2.37;2.27;;;;;;;;;;5053070;28;20433;-51
2020/12/16 12:48:37;;;;;;;2.93;2.77;;;;;;;;;;5055539;28;20440;-52
2020/12/16 12:51:04;;;;;;;2.30;2.20;;;;;;;;;;5070950;28;20456;-51
2020/12/16 12:53:30;;;;;;;2.40;2.30;;;;;;;;;;5069155;28;20449;-52
2020/12/16 12:55:56;;;;;;;3.10;2.90;;;;;;;;;;5064960;28;20931;-51
2020/12/16 12:58:22;;;;;;;2.93;2.73;;;;;;;;;;5066103;28;20510;-52
2020/12/16 13:00:48;;;;;;;2.17;2.07;;;;;;;;;;5052144;28;20417;-52
2020/12/16 13:03:14;;;;;;;3.03;2.83;;;;;;;;;;5050701;28;20901;-52
2020/12/16 13:05:40;;;;;;;3.17;2.97;;;;;;;;;;5062432;28;20438;-52
2020/12/16 13:08:05;;;;;;;2.30;2.20;;;;;;;;;;5061163;28;20437;-52
2020/12/16 13:10:31;;;;;;;3.97;3.63;;;;;;;;;;5056109;28;20460;-52
2020/12/16 13:12:57;;;;;;;2.53;2.43;;;;;;;;;;5070600;28;20400;-52
2020/12/16 13:15:23;;;;;;;2.57;2.47;;;;;;;;;;5069277;28;20409;-52
2020/12/16 13:17:49;;;;;;;3.27;2.97;;;;;;;;;;5063527;28;20456;-52
2020/12/16 13:20:15;;;;;;;2.53;2.43;;;;;;;;;;5050778;28;20408;-51
2020/12/16 13:22:41;;;;;;;3.63;2.90;;;;;;;;;;5051492;28;20424;-52
2020/12/16 13:25:07;;;;;;;3.23;3.03;;;;;;;;;;5051673;28;20903;-52
2020/12/16 13:27:36;;;;;;;3.17;2.97;;;;;;;;;;5055285;28;20876;-52
2020/12/16 13:30:02;;;;;;;2.80;2.60;;;;;;;;;;5068864;28;20475;-52
2020/12/16 13:32:29;;;;;;;3.17;2.97;;;;;;;;;;5052999;28;20432;-51
2020/12/16 13:34:55;;;;;;;3.13;2.93;;;;;;;;;;5051729;28;20908;-52
2020/12/16 13:37:21;;;;;;;3.63;3.43;;;;;;;;;;5052879;28;20444;-51
2020/12/16 13:39:47;;;;;;;3.80;3.60;;;;;;;;;;5060443;28;20856;-53
2020/12/16 13:42:14;;;;;;;3.30;3.10;;;;;;;;;;5051337;28;20425;-52
2020/12/16 13:44:42;;;;;;;3.83;3.60;;;;;;;;;;5050594;28;20405;-53
2020/12/16 13:47:08;;;;;;;4.33;3.20;;;;;;;;;;5067221;28;20951;-52
2020/12/16 13:49:34;;;;;;;3.80;3.50;;;;;;;;;;5068761;28;20462;-52
2020/12/16 13:52:00;;;;;;;3.70;3.40;;;;;;;;;;5054171;28;20441;-52
2020/12/16 13:54:26;;;;;;;3.90;3.60;;;;;;;;;;5067000;28;21172;-51
2020/12/16 13:56:52;;;;;;;4.23;3.90;;;;;;;;;;5067530;28;20487;-52
2020/12/16 13:59:18;;;;;;;4.03;3.73;;;;;;;;;;5050428;28;20493;-51
2020/12/16 14:01:44;;;;;;;3.73;3.43;;;;;;;;;;5062708;28;20420;-51
2020/12/16 14:04:10;;;;;;;4.60;3.70;;;;;;;;;;5070028;28;20404;-52
2020/12/16 14:06:36;;;;;;;4.43;4.13;;;;;;;;;;5066117;28;20444;-51
2020/12/16 14:09:02;;;;;;;4.20;3.90;;;;;;;;;;5071485;28;20442;-53
2020/12/16 14:11:28;;;;;;;4.00;3.70;;;;;;;;;;5054166;28;20429;-52
2020/12/16 14:13:54;;;;;;;3.57;3.30;;;;;;;;;;5055230;28;20470;-53
2020/12/16 14:16:21;;;;;;;4.33;3.93;;;;;;;;;;5054005;28;20410;-51
2020/12/16 14:18:48;;;;;;;3.90;3.60;;;;;;;;;;5060273;28;20419;-52
2020/12/16 14:21:14;;;;;;;3.30;3.10;;;;;;;;;;5072554;28;20450;-52
2020/12/16 14:23:41;;;;;;;3.30;3.10;;;;;;;;;;5064428;28;20938;-52
2020/12/16 14:26:09;;;;;;;4.20;3.80;;;;;;;;;;5061654;28;20446;-52